Chillar, Argentina
Current Conditions -  °F | °C
As of 5:00 AM on Thursday 23 Oct 2014 (Local Time) from SAZM Reporting Station
Scattered Clouds Scattered Clouds  
Wind Chill: 57°   Ceiling: Unl
Heat Index: 57°   Visibility: 6mi
Dew Point: 46°   Wind: 6mph
Humidity: 67%   Direction: 140°SE
Pressure: 30.06"   Gusts: NA
Location:  37.3°S, 59.98°W
Report Text: SAZM 230800Z 14005KT 9999 SCT030 SCT08014/08 Q1018
Loading
Personal Weather Stations






























Interactive Weather Map
Tropical Storm Tracking
New forecast layout! Learn more

10-Day Weather Forecast

Advertisements
Track Severe Weather on mobile